createdAt,value
2017-09-11T00:00:52.806Z,99349.50
2017-09-11T00:01:59.459Z,99337.61
2017-09-11T00:03:06.147Z,99342.70
2017-09-11T00:04:13.333Z,99339.72
2017-09-11T00:05:19.817Z,99342.52
2017-09-11T00:06:26.007Z,99339.55
2017-09-11T00:07:32.919Z,99339.50
2017-09-11T00:08:39.148Z,99338.08
2017-09-11T00:09:45.919Z,99335.49
2017-09-11T00:10:52.122Z,99332.54
2017-09-11T00:11:58.477Z,99334.02
2017-09-11T00:13:05.722Z,99331.76
2017-09-11T00:14:12.160Z,99329.79
2017-09-11T00:15:18.460Z,99329.70
2017-09-11T00:16:26.101Z,99333.55
2017-09-11T00:17:32.435Z,99335.87
2017-09-11T00:18:39.368Z,99332.02
2017-09-11T00:19:45.722Z,99330.44
2017-09-11T00:20:52.085Z,99335.45
2017-09-11T00:21:58.975Z,99321.39
2017-09-11T00:23:05.518Z,99319.81
2017-09-11T00:24:11.947Z,99331.45
2017-09-11T00:25:19.511Z,99322.23
2017-09-11T00:26:26.251Z,99320.61
2017-09-11T00:27:33.637Z,99314.44
2017-09-11T00:28:39.771Z,99319.69
2017-09-11T00:29:46.076Z,99316.16
2017-09-11T00:30:52.313Z,99314.73
2017-09-11T00:31:59.405Z,99318.38
2017-09-11T00:33:06.009Z,99314.85
2017-09-11T00:34:13.006Z,99310.90
2017-09-11T00:35:20.069Z,99310.55
2017-09-11T00:36:27.628Z,99308.78
2017-09-11T00:37:34.009Z,99310.68
2017-09-11T00:38:40.854Z,99312.47
2017-09-11T00:39:47.074Z,99309.36
2017-09-11T00:40:53.928Z,99309.63
2017-09-11T00:42:00.391Z,99309.20
2017-09-11T00:43:07.010Z,99306.20
2017-09-11T00:44:13.437Z,99305.00
2017-09-11T00:45:20.371Z,99303.31
2017-09-11T00:46:26.458Z,99305.56
2017-09-11T00:47:33.099Z,99305.30
2017-09-11T00:48:39.731Z,99299.84
2017-09-11T00:49:45.984Z,99296.23
2017-09-11T00:50:51.706Z,99303.86
2017-09-11T00:51:57.840Z,99297.64
2017-09-11T00:53:03.744Z,99295.73
2017-09-11T00:54:09.831Z,99295.52
2017-09-11T00:55:15.367Z,99293.33
2017-09-11T00:56:21.116Z,99288.86
2017-09-11T00:57:27.340Z,99289.55
2017-09-11T00:58:33.580Z,99286.76
2017-09-11T00:59:39.991Z,99280.40
2017-09-11T01:00:46.634Z,99283.97
2017-09-11T01:01:52.773Z,99286.98
2017-09-11T01:02:58.799Z,99277.02
2017-09-11T01:04:04.999Z,99290.17
2017-09-11T01:05:11.704Z,99279.98
2017-09-11T01:06:17.943Z,99287.20
2017-09-11T01:07:24.582Z,99285.30
2017-09-11T01:08:32.082Z,99282.20
2017-09-11T01:09:38.074Z,99281.40
2017-09-11T01:10:44.483Z,99286.37
2017-09-11T01:11:51.019Z,99285.94
2017-09-11T01:12:57.473Z,99283.77
2017-09-11T01:14:03.854Z,99287.38
2017-09-11T01:15:10.379Z,99286.66
2017-09-11T01:16:16.996Z,99286.98
2017-09-11T01:17:23.352Z,99286.79
2017-09-11T01:18:29.815Z,99288.61
2017-09-11T01:19:35.594Z,99282.97
2017-09-11T01:20:41.946Z,99280.84
2017-09-11T01:21:47.655Z,99278.59
2017-09-11T01:22:53.435Z,99286.11
2017-09-11T01:23:59.450Z,99274.53
2017-09-11T01:25:05.341Z,99276.61
2017-09-11T01:26:10.904Z,99278.22
2017-09-11T01:27:17.031Z,99272.75
2017-09-11T01:28:22.965Z,99268.59
2017-09-11T01:29:29.279Z,99265.58
2017-09-11T01:30:34.944Z,99268.08
2017-09-11T01:31:41.244Z,99264.48
2017-09-11T01:32:47.729Z,99260.02
2017-09-11T01:33:54.293Z,99259.97
2017-09-11T01:35:00.487Z,99255.95
2017-09-11T01:36:06.740Z,99256.38
2017-09-11T01:37:13.395Z,99260.66
2017-09-11T01:38:19.947Z,99256.96
2017-09-11T01:39:26.998Z,99253.48
2017-09-11T01:40:34.002Z,99253.66
2017-09-11T01:41:40.724Z,99250.86
2017-09-11T01:42:48.262Z,99250.39
2017-09-11T01:43:55.286Z,99247.80
2017-09-11T01:45:01.707Z,99249.11
2017-09-11T01:46:08.187Z,99250.00
2017-09-11T01:47:14.470Z,99249.58
2017-09-11T01:48:20.831Z,99239.06
2017-09-11T01:49:27.261Z,99242.75
2017-09-11T01:50:33.448Z,99237.41
2017-09-11T01:51:39.905Z,99238.34
2017-09-11T01:52:46.400Z,99241.64
2017-09-11T01:53:52.799Z,99243.94
2017-09-11T01:54:59.235Z,99242.80
2017-09-11T01:56:06.455Z,99250.39
2017-09-11T01:57:12.855Z,99239.23
2017-09-11T01:58:19.380Z,99243.27
2017-09-11T01:59:26.111Z,99243.69
2017-09-11T02:00:32.424Z,99238.98
2017-09-11T02:01:38.538Z,99238.64
2017-09-11T02:02:45.108Z,99234.95
2017-09-11T02:03:52.301Z,99234.44
2017-09-11T02:04:58.287Z,99236.42
2017-09-11T02:06:04.486Z,99237.95
2017-09-11T02:07:10.932Z,99232.16
2017-09-11T02:08:17.286Z,99232.33
2017-09-11T02:09:24.342Z,99236.91
2017-09-11T02:10:31.411Z,99234.48
2017-09-11T02:11:37.799Z,99223.41
2017-09-11T02:12:44.212Z,99225.16
2017-09-11T02:13:50.392Z,99227.02
2017-09-11T02:14:56.752Z,99226.77
2017-09-11T02:16:03.327Z,99227.83
2017-09-11T02:17:09.657Z,99220.54
2017-09-11T02:18:16.938Z,99225.19
2017-09-11T02:19:23.478Z,99221.34
2017-09-11T02:20:29.804Z,99219.39
2017-09-11T02:21:35.862Z,99223.75
2017-09-11T02:22:42.934Z,99219.17
2017-09-11T02:23:49.261Z,99222.56
2017-09-11T02:24:57.534Z,99216.30
2017-09-11T02:26:04.884Z,99220.24
2017-09-11T02:27:11.035Z,99215.83
2017-09-11T02:28:17.181Z,99222.27
2017-09-11T02:29:23.520Z,99222.14
2017-09-11T02:30:29.504Z,99224.34
2017-09-11T02:31:35.351Z,99219.98
2017-09-11T02:32:42.425Z,99216.08
2017-09-11T02:33:49.513Z,99215.62
2017-09-11T02:34:55.960Z,99211.16
2017-09-11T02:36:01.499Z,99217.86
2017-09-11T02:37:08.022Z,99210.73
2017-09-11T02:38:14.797Z,99209.77
2017-09-11T02:39:21.149Z,99207.47
2017-09-11T02:40:27.560Z,99212.05
2017-09-11T02:41:34.012Z,99207.85
2017-09-11T02:42:40.464Z,99205.06
2017-09-11T02:43:46.994Z,99205.95
2017-09-11T02:44:53.735Z,99203.79
2017-09-11T02:46:00.679Z,99202.21
2017-09-11T02:47:07.575Z,99202.89
2017-09-11T02:48:13.736Z,99200.69
2017-09-11T02:49:20.597Z,99189.59
2017-09-11T02:50:27.048Z,99197.42
2017-09-11T02:51:33.564Z,99196.16
2017-09-11T02:52:40.043Z,99191.11
2017-09-11T02:53:46.450Z,99187.97
2017-09-11T02:54:53.069Z,99198.91
2017-09-11T02:55:59.263Z,99197.26
2017-09-11T02:57:05.794Z,99200.22
2017-09-11T02:58:12.693Z,99197.42
2017-09-11T02:59:19.238Z,99197.89
2017-09-11T03:00:26.162Z,99193.78
2017-09-11T03:01:32.174Z,99193.36
2017-09-11T03:02:38.376Z,99196.16
2017-09-11T03:03:45.490Z,99190.98
2017-09-11T03:04:51.998Z,99193.86
2017-09-11T03:05:59.156Z,99183.91
2017-09-11T03:07:05.365Z,99182.59
2017-09-11T03:08:11.684Z,99190.44
2017-09-11T03:09:18.998Z,99182.55
2017-09-11T03:10:26.151Z,99180.85
2017-09-11T03:11:32.292Z,99180.59
2017-09-11T03:12:39.381Z,99180.38
2017-09-11T03:13:45.675Z,99181.86
2017-09-11T03:14:52.063Z,99180.77
2017-09-11T03:15:58.535Z,99171.23
2017-09-11T03:17:04.580Z,99176.27
2017-09-11T03:18:11.111Z,99174.75
2017-09-11T03:19:17.445Z,99174.92
2017-09-11T03:20:24.699Z,99172.08
2017-09-11T03:21:31.000Z,99169.91
2017-09-11T03:22:37.260Z,99168.23
2017-09-11T03:23:43.715Z,99168.17
2017-09-11T03:24:50.162Z,99159.66
2017-09-11T03:25:56.558Z,99163.88
2017-09-11T03:27:03.792Z,99155.44
2017-09-11T03:28:10.241Z,99160.34
2017-09-11T03:29:17.366Z,99157.55
2017-09-11T03:30:24.127Z,99156.15
2017-09-11T03:31:30.250Z,99154.84
2017-09-11T03:32:36.962Z,99156.54
2017-09-11T03:33:43.496Z,99151.64
2017-09-11T03:34:49.571Z,99149.30
2017-09-11T03:35:56.112Z,99154.14
2017-09-11T03:37:03.548Z,99153.55
2017-09-11T03:38:10.845Z,99151.05
2017-09-11T03:39:17.106Z,99150.92
2017-09-11T03:40:23.855Z,99146.82
2017-09-11T03:41:30.012Z,99148.73
2017-09-11T03:42:36.682Z,99154.98
2017-09-11T03:43:43.400Z,99146.43
2017-09-11T03:44:49.693Z,99145.38
2017-09-11T03:45:56.259Z,99146.47
2017-09-11T03:47:02.603Z,99146.82
2017-09-11T03:48:09.667Z,99148.50
2017-09-11T03:49:15.947Z,99147.02
2017-09-11T03:50:22.524Z,99152.41
2017-09-11T03:51:29.600Z,99148.08
2017-09-11T03:52:36.588Z,99138.59
2017-09-11T03:53:43.119Z,99142.02
2017-09-11T03:54:49.631Z,99135.58
2017-09-11T03:55:58.438Z,99141.34
2017-09-11T03:57:07.169Z,99133.26
2017-09-11T03:58:18.196Z,99130.66
2017-09-11T03:59:27.414Z,99133.41
2017-09-11T04:00:38.202Z,99129.97
2017-09-11T04:01:45.503Z,99127.82
2017-09-11T04:02:53.067Z,99126.42
2017-09-11T04:04:00.691Z,99123.67
2017-09-11T04:05:09.578Z,99128.19
2017-09-11T04:06:17.680Z,99129.92
2017-09-11T04:07:25.548Z,99122.48
2017-09-11T04:08:34.252Z,99123.14
2017-09-11T04:09:42.530Z,99124.05
2017-09-11T04:11:30.830Z,99121.22
2017-09-11T04:13:23.156Z,99116.48
2017-09-11T04:16:35.988Z,99110.92
2017-09-11T04:17:44.687Z,99107.97
2017-09-11T04:18:52.607Z,99109.03
2017-09-11T04:20:02.229Z,99107.67
2017-09-11T04:21:12.239Z,99111.16
2017-09-11T04:22:20.651Z,99104.13
2017-09-11T04:23:29.328Z,99098.97
2017-09-11T04:24:38.355Z,99105.06
2017-09-11T04:25:48.273Z,99103.95
2017-09-11T04:26:56.655Z,99094.21
2017-09-11T04:28:05.285Z,99091.17
2017-09-11T04:29:15.158Z,99094.00
2017-09-11T04:30:24.281Z,99092.95
2017-09-11T04:31:34.247Z,99092.02
2017-09-11T04:32:45.282Z,99089.35
2017-09-11T04:33:55.352Z,99087.97
2017-09-11T04:35:05.335Z,99082.58
2017-09-11T04:36:15.433Z,99077.33
2017-09-11T04:37:27.573Z,99078.84
2017-09-11T04:38:58.214Z,99078.80
2017-09-11T04:40:08.254Z,99072.40
2017-09-11T04:41:18.185Z,99062.84
2017-09-11T04:42:28.271Z,99073.91
2017-09-11T04:43:38.243Z,99065.46
2017-09-11T04:44:48.236Z,99063.63
2017-09-11T04:45:57.364Z,99066.72
2017-09-11T04:47:07.249Z,99066.03
2017-09-11T04:48:18.286Z,99067.20
2017-09-11T04:49:28.320Z,99058.76
2017-09-11T04:52:11.213Z,99052.98
2017-09-11T04:53:21.374Z,99056.09
2017-09-11T04:54:31.319Z,99054.08
2017-09-11T04:55:42.562Z,99053.12
2017-09-11T04:56:54.247Z,99054.11
2017-09-11T04:58:03.273Z,99052.05
2017-09-11T05:00:32.272Z,99060.74
2017-09-11T05:01:44.183Z,99059.32
2017-09-11T05:02:55.247Z,99058.45
2017-09-11T05:04:07.292Z,99060.30
2017-09-11T05:05:59.304Z,99061.97
2017-09-11T05:07:09.285Z,99057.02
2017-09-11T05:11:51.381Z,99055.39
2017-09-11T05:13:02.184Z,99057.30
2017-09-11T05:14:14.318Z,99056.46
2017-09-11T05:15:25.231Z,99056.93
2017-09-11T05:16:35.412Z,99060.01
2017-09-11T05:17:46.359Z,99054.00
2017-09-11T05:18:56.239Z,99057.85
2017-09-11T05:20:08.109Z,99053.63
2017-09-11T05:21:17.231Z,99053.58
2017-09-11T05:22:29.199Z,99051.37
2017-09-11T05:23:41.323Z,99043.12
2017-09-11T05:24:50.492Z,99048.11
2017-09-11T05:25:59.259Z,99058.79
2017-09-11T05:27:09.262Z,99056.76
2017-09-11T05:28:19.501Z,99050.13
2017-09-11T05:29:29.145Z,99058.44
2017-09-11T05:30:39.954Z,99052.23
2017-09-11T05:31:51.185Z,99049.60
2017-09-11T05:33:03.190Z,99045.67
2017-09-11T05:34:15.262Z,99052.27
2017-09-11T05:35:25.147Z,99042.09
2017-09-11T05:37:03.502Z,99046.98
2017-09-11T05:40:16.125Z,99038.09
2017-09-11T05:41:41.952Z,99036.70
2017-09-11T05:46:10.484Z,99042.80
2017-09-11T05:47:21.004Z,99027.86
2017-09-11T05:48:57.182Z,99023.55
2017-09-11T05:52:19.149Z,99029.98
2017-09-11T05:53:31.346Z,99025.80
2017-09-11T05:54:44.395Z,99020.16
2017-09-11T05:56:14.924Z,99019.41
2017-09-11T05:57:24.179Z,99013.25
2017-09-11T06:00:20.235Z,99009.87
2017-09-11T06:01:35.303Z,99013.03
2017-09-11T06:02:48.102Z,99007.02
2017-09-11T06:04:02.275Z,99014.63
2017-09-11T06:05:13.291Z,99007.77
2017-09-11T06:06:32.427Z,99008.04
2017-09-11T06:08:02.262Z,99014.86
2017-09-11T06:09:16.222Z,99010.25
2017-09-11T06:10:28.244Z,99011.52
2017-09-11T06:11:38.066Z,99018.05
2017-09-11T06:12:54.134Z,99013.94
2017-09-11T06:14:09.335Z,99011.67
2017-09-11T06:15:54.834Z,99014.70
2017-09-11T06:17:13.042Z,99013.02
2017-09-11T06:19:03.093Z,99007.64
2017-09-11T06:20:17.554Z,99006.97
2017-09-11T06:21:29.986Z,99009.36
2017-09-11T06:24:26.253Z,99011.88
2017-09-11T06:25:39.316Z,99007.92
2017-09-11T06:26:53.115Z,99009.73
2017-09-11T06:28:05.551Z,99007.20
2017-09-11T06:31:07.136Z,99002.52
2017-09-11T06:32:17.073Z,99005.55
2017-09-11T06:33:38.812Z,99004.52
2017-09-11T06:34:50.998Z,99007.50
2017-09-11T06:36:04.515Z,99011.94
2017-09-11T06:40:16.839Z,99010.73
2017-09-11T06:41:27.027Z,99011.32
2017-09-11T06:44:25.849Z,99020.50
2017-09-11T06:45:35.997Z,99020.69
2017-09-11T06:46:45.007Z,99017.19
2017-09-11T06:48:32.687Z,99019.14
2017-09-11T06:49:43.074Z,99024.17
2017-09-11T06:50:54.770Z,99020.52
2017-09-11T06:52:05.968Z,99021.47
2017-09-11T06:53:19.112Z,99021.84
2017-09-11T06:54:28.904Z,99022.86
2017-09-11T06:55:39.077Z,99023.00
2017-09-11T06:56:50.264Z,99025.44
2017-09-11T06:58:01.873Z,99024.55
2017-09-11T06:59:12.909Z,99017.47
2017-09-11T07:00:24.955Z,99018.23
2017-09-11T07:02:48.102Z,99016.84
2017-09-11T07:04:00.056Z,99023.80
2017-09-11T07:05:11.091Z,99019.94
2017-09-11T07:06:22.136Z,99021.53
2017-09-11T07:07:32.942Z,99022.05
2017-09-11T07:08:47.052Z,99028.20
2017-09-11T07:09:57.009Z,99021.16
2017-09-11T07:12:35.096Z,99028.20
2017-09-11T07:13:45.858Z,99029.09
2017-09-11T07:15:06.748Z,99021.79
2017-09-11T07:16:17.132Z,99025.97
2017-09-11T07:17:26.002Z,99026.90
2017-09-11T07:18:35.971Z,99024.73
2017-09-11T07:19:46.018Z,99020.05
2017-09-11T07:20:57.063Z,99024.71
2017-09-11T07:22:07.832Z,99028.45
2017-09-11T07:23:19.914Z,99024.05
2017-09-11T07:24:30.061Z,99026.17
2017-09-11T07:25:38.727Z,99031.45
2017-09-11T07:26:48.242Z,99030.85
2017-09-11T07:27:58.062Z,99032.02
2017-09-11T07:29:13.154Z,99038.37
2017-09-11T07:30:36.163Z,99047.09
2017-09-11T07:31:49.357Z,99041.83
2017-09-11T07:33:04.841Z,99042.97
2017-09-11T07:34:21.967Z,99039.47
2017-09-11T07:36:09.887Z,99035.56
2017-09-11T07:37:20.015Z,99037.88
2017-09-11T07:38:34.021Z,99037.77
2017-09-11T07:39:46.893Z,99037.03
2017-09-11T07:40:58.004Z,99038.75
2017-09-11T07:42:09.090Z,99034.88
2017-09-11T07:43:22.033Z,99033.13
2017-09-11T07:44:34.105Z,99033.27
2017-09-11T07:45:46.873Z,99032.98
2017-09-11T07:46:59.058Z,99033.88
2017-09-11T07:48:09.927Z,99032.94
2017-09-11T07:49:22.094Z,99036.53
2017-09-11T07:50:36.880Z,99038.72
2017-09-11T07:51:49.044Z,99041.50
2017-09-11T07:53:00.165Z,99042.20
2017-09-11T07:54:14.043Z,99040.69
2017-09-11T07:55:22.707Z,99033.91
2017-09-11T07:56:50.857Z,99042.92
2017-09-11T08:03:09.153Z,99036.97
2017-09-11T08:06:52.678Z,99035.56
2017-09-11T08:08:06.047Z,99043.95
2017-09-11T08:09:18.120Z,99034.20
2017-09-11T08:10:31.812Z,99039.59
2017-09-11T08:11:42.854Z,99029.43
2017-09-11T08:14:23.667Z,99030.41
2017-09-11T08:15:51.708Z,99033.27
2017-09-11T08:18:56.929Z,99032.98
2017-09-11T08:20:09.935Z,99037.03
2017-09-11T08:21:22.959Z,99036.20
2017-09-11T08:24:50.865Z,99039.41
2017-09-11T08:26:01.840Z,99039.14
2017-09-11T08:27:13.877Z,99034.67
2017-09-11T08:28:22.747Z,99032.29
2017-09-11T08:29:34.414Z,99027.72
2017-09-11T08:30:43.770Z,99032.85
2017-09-11T08:31:56.022Z,99031.56
2017-09-11T08:33:06.941Z,99026.99
2017-09-11T08:34:39.462Z,99024.89
2017-09-11T08:35:53.301Z,99020.72
2017-09-11T08:37:14.929Z,99016.06
2017-09-11T08:38:29.846Z,99020.23
2017-09-11T08:39:42.040Z,99011.93
2017-09-11T08:40:55.890Z,99004.44
2017-09-11T08:42:07.877Z,99011.26
2017-09-11T08:43:18.848Z,99014.31
2017-09-11T08:44:28.929Z,99017.16
2017-09-11T08:45:42.741Z,99013.41
2017-09-11T08:46:55.861Z,99013.00
2017-09-11T08:48:05.980Z,99010.41
2017-09-11T08:49:17.048Z,99011.81
2017-09-11T08:50:28.024Z,99008.86
2017-09-11T08:51:39.813Z,99008.59
2017-09-11T08:52:49.864Z,99005.41
2017-09-11T08:55:40.816Z,99007.50
2017-09-11T08:57:09.944Z,99004.48
2017-09-11T08:58:20.889Z,99004.99
2017-09-11T09:00:46.888Z,99005.95
2017-09-11T09:01:58.801Z,99003.17
2017-09-11T09:03:11.738Z,99008.05
2017-09-11T09:06:04.717Z,99006.02
2017-09-11T09:07:19.919Z,98994.92
2017-09-11T09:08:30.884Z,98996.25
2017-09-11T09:09:40.614Z,99003.86
2017-09-11T09:10:49.791Z,99007.47
2017-09-11T09:12:01.833Z,99012.86
2017-09-11T09:13:11.760Z,99003.23
2017-09-11T09:14:53.599Z,99006.55
2017-09-11T09:17:53.887Z,99001.67
2017-09-11T09:19:23.541Z,99011.22
2017-09-11T09:20:34.805Z,99003.88
2017-09-11T09:21:47.368Z,99009.93
2017-09-11T09:23:05.657Z,99008.83
2017-09-11T09:24:47.575Z,99010.77
2017-09-11T09:26:25.340Z,99015.09
2017-09-11T09:27:35.799Z,99012.84
2017-09-11T09:28:45.784Z,99019.06
2017-09-11T09:29:56.576Z,99013.32
2017-09-11T09:31:11.744Z,99011.88
2017-09-11T09:32:20.578Z,99009.17
2017-09-11T09:33:30.672Z,99012.00
2017-09-11T09:34:43.711Z,99007.76
2017-09-11T09:35:57.712Z,99006.91
2017-09-11T09:38:34.817Z,99002.39
2017-09-11T09:42:35.656Z,98999.38
2017-09-11T09:43:48.672Z,98999.95
2017-09-11T09:44:59.629Z,99002.17
2017-09-11T09:46:09.650Z,98996.33
2017-09-11T09:47:21.755Z,99000.34
2017-09-11T09:48:56.361Z,99000.13
2017-09-11T09:50:06.650Z,99001.93
2017-09-11T09:51:21.619Z,99001.54
2017-09-11T09:52:33.631Z,98992.06
2017-09-11T09:53:43.763Z,98993.41
2017-09-11T09:54:55.596Z,98983.16
2017-09-11T09:56:07.358Z,98990.86
2017-09-11T09:57:17.869Z,98987.25
2017-09-11T09:58:27.164Z,98987.86
2017-09-11T09:59:38.700Z,98975.38
2017-09-11T10:00:51.612Z,98978.40
2017-09-11T10:02:02.705Z,98981.70
2017-09-11T10:03:19.714Z,98981.89
2017-09-11T10:04:30.730Z,98978.43
2017-09-11T10:05:40.947Z,98978.47
2017-09-11T10:07:01.737Z,98981.18
2017-09-11T10:08:12.772Z,98977.72
2017-09-11T10:09:23.585Z,98979.34
2017-09-11T10:10:36.958Z,98980.89
2017-09-11T10:11:48.732Z,98980.84
2017-09-11T10:12:58.779Z,98987.05
2017-09-11T10:14:08.492Z,98985.92
2017-09-11T10:15:19.602Z,98987.42
2017-09-11T10:16:30.495Z,98985.73
2017-09-11T10:17:42.493Z,98983.09
2017-09-11T10:18:53.708Z,98983.77
2017-09-11T10:20:03.503Z,98983.47
2017-09-11T10:21:15.620Z,98983.52
2017-09-11T10:22:26.677Z,98989.08
2017-09-11T10:23:37.683Z,98987.56
2017-09-11T10:24:48.692Z,98983.27
2017-09-11T10:25:59.620Z,98986.97
2017-09-11T10:27:12.910Z,98988.92
2017-09-11T10:28:25.588Z,98991.95
2017-09-11T10:29:39.887Z,98989.90
2017-09-11T10:30:50.570Z,98991.78
2017-09-11T10:32:23.631Z,98995.63
2017-09-11T10:33:35.590Z,98998.34
2017-09-11T10:34:45.553Z,99004.74
2017-09-11T10:35:55.775Z,99000.74
2017-09-11T10:37:05.650Z,98999.42
2017-09-11T10:38:16.439Z,98997.28
2017-09-11T10:39:26.552Z,98999.52
2017-09-11T10:40:41.733Z,99002.17
2017-09-11T10:41:51.550Z,99003.70
2017-09-11T10:43:06.574Z,99003.14
2017-09-11T10:44:21.512Z,99002.59
2017-09-11T10:45:35.842Z,98998.55
2017-09-11T10:46:47.693Z,98989.17
2017-09-11T10:48:22.374Z,98983.31
2017-09-11T10:51:37.491Z,98986.36
2017-09-11T10:55:23.318Z,98998.64
2017-09-11T10:56:35.599Z,99000.94
2017-09-11T10:57:47.515Z,99003.60
2017-09-11T10:58:58.394Z,99001.92
2017-09-11T11:00:11.667Z,99006.64
2017-09-11T11:01:21.941Z,99009.09
2017-09-11T11:03:08.756Z,99012.73
2017-09-11T11:04:23.598Z,99011.55
2017-09-11T11:05:35.675Z,99010.12
2017-09-11T11:06:48.476Z,99013.24
2017-09-11T11:08:00.443Z,99013.47
2017-09-11T11:09:13.523Z,99011.25
2017-09-11T11:10:25.535Z,99012.57
2017-09-11T11:11:37.504Z,99013.27
2017-09-11T11:12:49.655Z,99018.69
2017-09-11T11:16:08.350Z,99018.06
2017-09-11T11:19:41.480Z,99015.69
2017-09-11T11:20:52.447Z,99021.16
2017-09-11T11:22:03.435Z,99014.22
2017-09-11T11:23:14.397Z,99027.17
2017-09-11T11:24:25.419Z,99019.27
2017-09-11T11:25:37.522Z,99015.39
2017-09-11T11:26:48.344Z,99030.16
2017-09-11T11:27:58.452Z,99027.50
2017-09-11T11:29:08.506Z,99032.56
2017-09-11T11:30:19.516Z,99031.84
2017-09-11T11:31:29.428Z,99032.58
2017-09-11T11:32:39.998Z,99029.78
2017-09-11T11:33:51.555Z,99027.67
2017-09-11T11:35:08.525Z,99029.33
2017-09-11T11:36:18.313Z,99042.34
2017-09-11T11:38:47.471Z,99037.77
2017-09-11T11:39:58.458Z,99038.60
2017-09-11T11:41:08.268Z,99039.35
2017-09-11T11:42:20.551Z,99039.05
2017-09-11T11:43:32.387Z,99037.69
2017-09-11T11:44:42.449Z,99036.13
2017-09-11T11:45:53.436Z,99037.46
2017-09-11T11:47:03.467Z,99025.60
2017-09-11T11:48:14.748Z,99025.91
2017-09-11T11:49:26.363Z,99024.09
2017-09-11T11:50:37.250Z,99024.13
2017-09-11T11:51:48.539Z,99020.95
2017-09-11T11:53:01.280Z,99021.80
2017-09-11T11:54:11.295Z,99025.91
2017-09-11T11:55:58.316Z,99028.13
2017-09-11T11:57:10.535Z,99018.23
2017-09-11T12:00:40.431Z,99025.47
2017-09-11T12:01:53.399Z,99027.35
2017-09-11T12:03:03.346Z,99024.16
2017-09-11T12:04:16.528Z,99023.38
2017-09-11T12:05:26.637Z,99020.88
2017-09-11T12:06:39.580Z,99019.27
2017-09-11T12:07:50.617Z,99027.08
2017-09-11T12:11:07.564Z,99029.12
2017-09-11T12:12:19.370Z,99028.83
2017-09-11T12:13:31.316Z,99026.50
2017-09-11T12:14:44.318Z,99025.13
2017-09-11T12:22:56.350Z,99012.45
2017-09-11T12:24:09.233Z,99012.87
2017-09-11T12:25:20.352Z,99010.45
2017-09-11T12:26:31.179Z,99011.08
2017-09-11T12:28:04.048Z,99018.81
2017-09-11T12:29:12.419Z,99014.81
2017-09-11T12:30:23.479Z,99003.90
2017-09-11T12:31:34.478Z,99011.08
2017-09-11T12:32:46.431Z,99006.19
2017-09-11T12:33:56.211Z,99003.44
2017-09-11T12:35:05.607Z,99002.39
2017-09-11T12:36:18.323Z,99000.05
2017-09-11T12:37:30.526Z,98998.61
2017-09-11T12:38:40.457Z,99006.34
2017-09-11T12:39:50.265Z,98994.97
2017-09-11T12:41:02.574Z,99002.20
2017-09-11T12:44:49.166Z,98996.29
2017-09-11T12:46:00.514Z,98996.47
2017-09-11T12:48:53.286Z,99004.26
2017-09-11T12:50:03.241Z,98997.97
2017-09-11T12:51:17.324Z,99003.62
2017-09-11T12:52:28.263Z,99001.73
2017-09-11T12:53:38.097Z,99005.97
2017-09-11T12:54:57.063Z,99004.70
2017-09-11T12:56:06.038Z,99007.06
2017-09-11T12:57:19.057Z,99014.14
2017-09-11T12:58:30.495Z,99010.66
2017-09-11T12:59:40.128Z,99013.84
2017-09-11T13:00:52.227Z,99011.86
2017-09-11T13:03:16.201Z,99005.61
2017-09-11T13:04:26.542Z,98997.63
2017-09-11T13:05:37.203Z,99001.41
2017-09-11T13:06:47.273Z,98995.67
2017-09-11T13:07:57.393Z,98991.82
2017-09-11T13:09:08.166Z,98990.66
2017-09-11T13:10:19.056Z,98990.59
2017-09-11T13:11:29.207Z,98989.97
2017-09-11T13:12:39.170Z,98992.44
2017-09-11T13:13:50.904Z,98985.73
2017-09-11T13:15:01.411Z,98992.00
2017-09-11T13:16:11.132Z,98987.58
2017-09-11T13:17:20.215Z,98989.72
2017-09-11T13:18:30.240Z,98990.48
2017-09-11T13:19:41.212Z,98989.77
2017-09-11T13:20:52.186Z,98993.39
2017-09-11T13:22:02.148Z,98994.41
2017-09-11T13:23:14.419Z,98993.15
2017-09-11T13:24:24.317Z,98995.27
2017-09-11T13:25:34.351Z,98993.14
2017-09-11T13:26:47.190Z,99002.48
2017-09-11T13:27:57.212Z,98998.27
2017-09-11T13:29:07.219Z,99004.14
2017-09-11T13:30:16.119Z,98998.75
2017-09-11T13:31:27.269Z,99001.17
2017-09-11T13:32:37.133Z,98999.87
2017-09-11T13:33:47.224Z,99000.19
2017-09-11T13:34:57.229Z,98996.41
2017-09-11T13:38:13.131Z,98992.94
2017-09-11T13:39:23.133Z,98999.17
2017-09-11T13:40:35.545Z,99000.19
2017-09-11T13:41:45.064Z,98995.11
2017-09-11T13:42:56.228Z,98993.50
2017-09-11T13:44:06.051Z,98995.06
2017-09-11T13:45:16.182Z,98995.54
2017-09-11T13:46:26.697Z,98999.41
2017-09-11T13:47:42.394Z,98988.56
2017-09-11T13:51:44.957Z,98985.84
2017-09-11T13:52:54.296Z,98984.92
2017-09-11T13:54:03.192Z,98990.11
2017-09-11T13:55:13.059Z,98995.31
2017-09-11T13:56:22.245Z,98988.03
2017-09-11T14:00:25.871Z,98981.08
2017-09-11T14:01:36.056Z,98983.31
2017-09-11T14:05:55.113Z,98982.64
2017-09-11T14:09:36.860Z,98969.65
2017-09-11T14:10:47.622Z,98967.53
2017-09-11T14:11:58.039Z,98963.34
2017-09-11T14:13:07.912Z,98956.59
2017-09-11T14:14:19.049Z,98964.70
2017-09-11T14:15:29.091Z,98963.30
2017-09-11T14:16:40.204Z,98957.69
2017-09-11T14:17:51.089Z,98952.78
2017-09-11T14:19:18.059Z,98958.73
2017-09-11T14:22:27.175Z,98965.19
2017-09-11T14:23:36.109Z,98966.04
2017-09-11T14:24:46.998Z,98970.77
2017-09-11T14:25:58.045Z,98973.01
2017-09-11T14:27:10.989Z,98966.97
2017-09-11T14:28:21.102Z,98960.39
2017-09-11T14:31:13.377Z,98956.05
2017-09-11T14:32:23.314Z,98957.99
2017-09-11T14:33:33.977Z,98954.09
2017-09-11T14:34:45.057Z,98958.44
2017-09-11T14:35:53.915Z,98965.41
2017-09-11T14:37:03.012Z,98958.13
2017-09-11T14:38:13.080Z,98959.42
2017-09-11T14:39:22.130Z,98955.04
2017-09-11T14:40:32.173Z,98957.27
2017-09-11T14:41:43.031Z,98966.86
2017-09-11T14:42:52.918Z,98963.56
2017-09-11T14:44:03.054Z,98959.93
2017-09-11T14:45:11.618Z,98951.20
2017-09-11T14:46:19.029Z,98957.67
2017-09-11T14:47:27.913Z,98960.61
2017-09-11T14:48:38.082Z,98960.03
2017-09-11T14:49:49.191Z,98967.44
2017-09-11T14:50:59.925Z,98974.19
2017-09-11T14:52:09.863Z,98969.53
2017-09-11T14:53:21.143Z,98973.55
2017-09-11T14:54:30.279Z,98970.27
2017-09-11T14:55:40.910Z,98965.98
2017-09-11T14:56:51.149Z,98969.19
2017-09-11T14:58:00.827Z,98965.75
2017-09-11T14:59:29.744Z,98965.84
2017-09-11T15:00:40.035Z,98963.46
2017-09-11T15:01:49.151Z,98963.64
2017-09-11T15:02:58.044Z,98962.98
2017-09-11T15:04:20.961Z,98956.34
2017-09-11T15:05:28.966Z,98966.22
2017-09-11T15:06:38.968Z,98965.97
2017-09-11T15:07:53.223Z,98974.19
2017-09-11T15:11:21.895Z,98974.94
2017-09-11T15:12:31.858Z,98976.59
2017-09-11T15:13:41.108Z,98982.38
2017-09-11T15:14:54.859Z,98976.50
2017-09-11T15:18:42.083Z,98967.43
2017-09-11T15:22:08.015Z,98970.52
2017-09-11T15:23:38.675Z,98969.29
2017-09-11T15:24:46.831Z,98969.41
2017-09-11T15:25:57.160Z,98966.84
2017-09-11T15:27:06.973Z,98973.13
2017-09-11T15:28:18.849Z,98978.86
2017-09-11T15:29:29.193Z,98979.28
2017-09-11T15:30:53.863Z,98976.38
2017-09-11T15:32:14.151Z,98983.40
2017-09-11T15:33:25.916Z,98989.32
2017-09-11T15:34:38.897Z,98982.59
2017-09-11T15:37:27.101Z,98991.08
2017-09-11T15:38:37.189Z,98982.47
2017-09-11T15:39:48.863Z,98979.33